Laurier, Washington
Current Conditions -  °F | °C
As of 6:00 AM on Thursday 30 Oct 2014 (Local Time) from CYCG Reporting Station
Haze Haze  
Wind Chill: 43°   Ceiling: 7000
Heat Index: 43°   Visibility: 6mi
Dew Point: 43°   Wind: 2mph
Humidity: 100%   Direction: 140°SE
Pressure: 30.21"   Gusts: NA
Location:  49°N, 118.23°W
Report Text: CYCG 301300Z 14002KT 6SM BR FEW002 SCT022 BKN070 06/06 A3021 RMK ST2SC2AC1 SLP241
Loading
Personal Weather Stations






























Interactive Weather Map
Tropical Storm Tracking
New forecast layout! Learn more

10-Day Weather Forecast

Advertisements
Track Severe Weather on mobile